createdAt,value
2019-02-12T00:00:34.044Z,25.60
2019-02-12T00:03:00.215Z,33.60
2019-02-12T00:05:26.371Z,36.37
2019-02-12T00:07:52.680Z,49.43
2019-02-12T00:10:18.838Z,32.97
2019-02-12T00:12:45.122Z,52.37
2019-02-12T00:15:11.430Z,68.07
2019-02-12T00:17:37.690Z,62.63
2019-02-12T00:20:05.308Z,46.03
2019-02-12T00:22:31.506Z,74.80
2019-02-12T00:24:57.825Z,65.20
2019-02-12T00:27:24.101Z,70.30
2019-02-12T00:29:50.291Z,68.07
2019-02-12T00:32:16.559Z,55.37
2019-02-12T00:34:43.046Z,72.57
2019-02-12T00:37:09.348Z,54.77
2019-02-12T00:39:35.618Z,65.17
2019-02-12T00:42:01.768Z,64.57
2019-02-12T00:44:27.951Z,70.23
2019-02-12T00:46:54.219Z,75.27
2019-02-12T00:49:20.489Z,70.33
2019-02-12T00:51:46.682Z,67.07
2019-02-12T00:54:12.833Z,74.60
2019-02-12T00:56:38.999Z,74.33
2019-02-12T00:59:05.292Z,75.30
2019-02-12T01:01:31.572Z,69.03
2019-02-12T01:03:57.845Z,74.50
2019-02-12T01:06:24.165Z,72.37
2019-02-12T01:08:50.410Z,68.87
2019-02-12T01:11:16.667Z,77.07
2019-02-12T01:13:43.072Z,56.83
2019-02-12T01:16:09.235Z,63.23
2019-02-12T01:18:35.388Z,64.13
2019-02-12T01:21:01.795Z,42.27
2019-02-12T01:23:27.948Z,47.60
2019-02-12T01:25:54.224Z,36.13
2019-02-12T01:28:20.409Z,62.07
2019-02-12T01:30:46.582Z,60.23
2019-02-12T01:33:12.841Z,67.13
2019-02-12T01:35:39.044Z,60.90
2019-02-12T01:38:05.312Z,80.40
2019-02-12T01:40:31.468Z,63.57
2019-02-12T01:42:57.659Z,75.07
2019-02-12T01:45:23.824Z,52.17
2019-02-12T01:47:49.982Z,78.40
2019-02-12T01:50:16.170Z,69.43
2019-02-12T01:52:42.388Z,74.17
2019-02-12T01:55:08.627Z,67.50
2019-02-12T01:57:34.938Z,75.40
2019-02-12T02:00:01.118Z,62.90
2019-02-12T02:02:27.258Z,74.07
2019-02-12T02:04:53.455Z,65.73
2019-02-12T02:07:19.608Z,43.00
2019-02-12T02:09:46.072Z,50.60
2019-02-12T02:12:12.258Z,33.57
2019-02-12T02:14:38.427Z,31.47
2019-02-12T02:17:04.582Z,42.00
2019-02-12T02:19:30.779Z,34.37
2019-02-12T02:21:57.098Z,34.73
2019-02-12T02:24:23.247Z,37.37
2019-02-12T02:26:49.465Z,27.10
2019-02-12T02:29:15.592Z,21.73
2019-02-12T02:31:41.748Z,29.20
2019-02-12T02:34:07.943Z,41.83
2019-02-12T02:36:34.091Z,37.30
2019-02-12T02:39:00.251Z,41.80
2019-02-12T02:41:26.444Z,41.97
2019-02-12T02:43:52.602Z,45.83
2019-02-12T02:46:18.763Z,42.90
2019-02-12T02:48:45.052Z,42.33
2019-02-12T02:51:11.268Z,25.60
2019-02-12T02:53:37.476Z,35.37
2019-02-12T02:56:03.683Z,31.87
2019-02-12T02:58:29.812Z,26.90
2019-02-12T03:00:55.973Z,19.23
2019-02-12T03:03:22.264Z,19.40
2019-02-12T03:05:48.415Z,19.17
2019-02-12T03:08:14.573Z,14.20
2019-02-12T03:10:40.867Z,11.13
2019-02-12T03:13:07.013Z,9.87
2019-02-12T03:15:33.174Z,9.43
2019-02-12T03:17:59.363Z,7.17
2019-02-12T03:20:25.640Z,8.93
2019-02-12T03:22:51.951Z,8.23
2019-02-12T03:25:18.150Z,6.73
2019-02-12T03:27:44.312Z,8.47
2019-02-12T03:30:11.082Z,6.83
2019-02-12T03:32:37.291Z,8.67
2019-02-12T03:35:05.039Z,5.10
2019-02-12T03:37:31.199Z,4.30
2019-02-12T03:39:57.458Z,5.73
2019-02-12T03:42:23.738Z,4.17
2019-02-12T03:44:50.000Z,3.07
2019-02-12T03:47:16.283Z,3.00
2019-02-12T03:49:42.442Z,3.60
2019-02-12T03:52:12.825Z,2.37
2019-02-12T03:54:36.704Z,3.70
2019-02-12T03:57:03.167Z,1.80
2019-02-12T03:59:29.326Z,1.70
2019-02-12T04:01:55.612Z,6.27
2019-02-12T04:04:21.791Z,1.60
2019-02-12T04:06:47.957Z,3.47
2019-02-12T04:09:14.254Z,2.27
2019-02-12T04:11:40.412Z,1.60
2019-02-12T04:14:06.574Z,1.20
2019-02-12T04:16:32.778Z,2.47
2019-02-12T04:18:58.936Z,1.70
2019-02-12T04:21:25.092Z,1.73
2019-02-12T04:23:51.390Z,2.47
2019-02-12T04:26:17.560Z,1.53
2019-02-12T04:28:43.840Z,2.83
2019-02-12T04:31:10.029Z,1.20
2019-02-12T04:33:36.178Z,1.90
2019-02-12T04:36:02.438Z,2.37
2019-02-12T04:38:28.728Z,1.63
2019-02-12T04:40:54.890Z,2.90
2019-02-12T04:43:21.042Z,2.13
2019-02-12T04:45:47.535Z,2.80
2019-02-12T04:48:13.671Z,1.63
2019-02-12T04:50:39.835Z,2.83
2019-02-12T04:53:06.132Z,1.97
2019-02-12T04:55:32.292Z,2.20
2019-02-12T04:57:58.454Z,3.23
2019-02-12T05:00:24.801Z,3.83
2019-02-12T05:02:51.122Z,4.53
2019-02-12T05:05:17.388Z,22.50
2019-02-12T05:07:43.582Z,5.03
2019-02-12T05:10:16.440Z,3.90
2019-02-12T05:12:42.609Z,5.77
2019-02-12T05:15:09.090Z,2.27
2019-02-12T05:17:35.360Z,2.63
2019-02-12T05:20:01.547Z,4.13
2019-02-12T05:22:27.847Z,8.73
2019-02-12T05:24:54.055Z,6.37
2019-02-12T05:27:20.318Z,7.73
2019-02-12T05:29:46.613Z,8.53
2019-02-12T05:32:12.774Z,7.47
2019-02-12T05:34:39.026Z,19.17
2019-02-12T05:37:05.216Z,6.93
2019-02-12T05:39:31.369Z,27.33
2019-02-12T05:41:57.631Z,62.87
2019-02-12T05:44:23.860Z,104.37
2019-02-12T05:46:50.124Z,27.87
2019-02-12T05:49:16.296Z,16.40
2019-02-12T05:51:42.470Z,21.70
2019-02-12T05:54:08.736Z,14.33
2019-02-12T05:56:34.901Z,18.57
2019-02-12T05:59:01.165Z,14.23
2019-02-12T06:01:27.365Z,24.17
2019-02-12T06:03:53.632Z,15.37
2019-02-12T06:06:19.836Z,14.10
2019-02-12T06:08:46.003Z,12.23
2019-02-12T06:11:12.270Z,15.70
2019-02-12T06:13:38.579Z,8.10
2019-02-12T06:16:04.739Z,13.83
2019-02-12T06:18:30.999Z,16.43
2019-02-12T06:20:57.315Z,15.57
2019-02-12T06:23:23.548Z,20.63
2019-02-12T06:25:49.705Z,20.80
2019-02-12T06:28:16.002Z,15.10
2019-02-12T06:30:43.960Z,14.33
2019-02-12T06:33:10.341Z,13.70
2019-02-12T06:35:36.658Z,28.20
2019-02-12T06:38:02.944Z,14.07
2019-02-12T06:40:29.191Z,11.33
2019-02-12T06:42:55.414Z,7.37
2019-02-12T06:45:21.684Z,8.23
2019-02-12T06:47:47.950Z,8.43
2019-02-12T06:50:14.195Z,6.43
2019-02-12T06:52:40.447Z,5.70
2019-02-12T06:55:10.094Z,4.27
2019-02-12T06:57:36.885Z,5.27
2019-02-12T07:00:06.856Z,8.77
2019-02-12T07:03:11.660Z,9.17
2019-02-12T07:05:47.403Z,19.30
2019-02-12T07:08:38.482Z,16.13
2019-02-12T07:11:17.209Z,24.77
2019-02-12T07:14:06.565Z,24.67
2019-02-12T07:16:52.992Z,8.20
2019-02-12T07:19:56.427Z,10.40
2019-02-12T07:22:29.114Z,7.60
2019-02-12T07:25:01.686Z,6.17
2019-02-12T07:27:37.759Z,5.27
2019-02-12T07:30:26.210Z,7.67
2019-02-12T07:33:17.289Z,8.27
2019-02-12T07:36:22.199Z,8.37
2019-02-12T07:39:17.886Z,3.10
2019-02-12T07:41:47.845Z,4.73
2019-02-12T07:44:17.601Z,4.87
2019-02-12T07:47:05.666Z,6.83
2019-02-12T07:49:35.431Z,5.53
2019-02-12T07:52:11.283Z,3.00
2019-02-12T07:54:56.323Z,2.20
2019-02-12T07:57:44.345Z,2.27
2019-02-12T08:00:17.114Z,2.27
2019-02-12T08:03:05.001Z,1.37
2019-02-12T08:05:37.813Z,1.10
2019-02-12T08:08:32.318Z,1.80
2019-02-12T08:11:07.887Z,1.87
2019-02-12T08:13:54.397Z,1.67
2019-02-12T08:16:24.165Z,1.77
2019-02-12T08:19:27.647Z,2.57
2019-02-12T08:22:06.375Z,1.97
2019-02-12T08:25:09.667Z,4.43
2019-02-12T08:28:06.434Z,1.80
2019-02-12T08:30:42.002Z,2.60
2019-02-12T08:33:20.875Z,0.87
2019-02-12T08:35:57.203Z,1.70
2019-02-12T08:38:45.923Z,4.00
2019-02-12T08:41:41.533Z,3.37
2019-02-12T08:44:29.328Z,3.43
2019-02-12T08:46:59.126Z,1.27
2019-02-12T08:49:50.341Z,2.30
2019-02-12T08:52:46.082Z,1.60
2019-02-12T08:55:41.655Z,2.00
2019-02-12T08:58:11.461Z,2.40
2019-02-12T09:00:53.128Z,3.60
2019-02-12T09:03:28.747Z,1.73
2019-02-12T09:06:10.508Z,1.30
2019-02-12T09:09:01.790Z,1.83
2019-02-12T09:11:46.313Z,2.63
2019-02-12T09:14:16.114Z,2.30
2019-02-12T09:16:51.659Z,3.40
2019-02-12T09:19:27.533Z,7.07
2019-02-12T09:22:29.160Z,5.13
2019-02-12T09:25:14.164Z,5.53
2019-02-12T09:28:00.663Z,2.50
2019-02-12T09:30:45.523Z,3.97
2019-02-12T09:33:27.027Z,5.40
2019-02-12T09:35:59.735Z,9.37
2019-02-12T09:38:41.379Z,4.87
2019-02-12T09:41:17.249Z,4.17
2019-02-12T09:44:06.602Z,6.50
2019-02-12T09:46:42.392Z,9.80
2019-02-12T09:49:21.066Z,3.60
2019-02-12T09:51:56.619Z,5.33
2019-02-12T09:54:29.539Z,6.63
2019-02-12T09:57:14.676Z,3.20
2019-02-12T09:59:59.564Z,5.93
2019-02-12T10:02:58.470Z,5.43
2019-02-12T10:05:40.327Z,5.83
2019-02-12T10:08:41.384Z,4.97
2019-02-12T10:11:11.254Z,3.80
2019-02-12T10:13:52.973Z,3.93
2019-02-12T10:16:34.988Z,5.33
2019-02-12T10:19:16.637Z,3.47
2019-02-12T10:22:16.288Z,3.63
2019-02-12T10:24:55.046Z,5.27
2019-02-12T10:27:56.837Z,8.23
2019-02-12T10:30:35.687Z,7.53
2019-02-12T10:33:01.861Z,7.57
2019-02-12T10:35:28.142Z,4.40
2019-02-12T10:37:54.444Z,3.93
2019-02-12T10:40:20.616Z,6.23
2019-02-12T10:42:46.768Z,4.93
2019-02-12T10:45:13.060Z,5.83
2019-02-12T10:47:39.223Z,4.10
2019-02-12T10:50:07.184Z,4.77
2019-02-12T10:52:33.487Z,4.63
2019-02-12T10:54:59.751Z,3.63
2019-02-12T10:57:26.021Z,5.23
2019-02-12T10:59:52.212Z,3.67
2019-02-12T11:02:20.287Z,3.43
2019-02-12T11:04:46.452Z,9.43
2019-02-12T11:07:12.634Z,4.90
2019-02-12T11:09:38.925Z,2.60
2019-02-12T11:12:05.188Z,4.50
2019-02-12T11:14:31.381Z,7.87
2019-02-12T11:16:57.657Z,6.47
2019-02-12T11:19:23.919Z,4.07
2019-02-12T11:21:50.265Z,3.20
2019-02-12T11:24:16.522Z,4.65
2019-02-12T11:26:42.716Z,3.60
2019-02-12T11:29:09.020Z,6.93
2019-02-12T11:31:35.323Z,5.40
2019-02-12T11:34:01.476Z,9.27
2019-02-12T11:36:27.669Z,9.80
2019-02-12T11:38:53.935Z,6.73
2019-02-12T11:41:20.102Z,10.10
2019-02-12T11:43:46.325Z,6.23
2019-02-12T11:46:12.584Z,7.43
2019-02-12T11:48:38.874Z,7.17
2019-02-12T11:51:05.056Z,9.37
2019-02-12T11:53:31.323Z,7.37
2019-02-12T11:55:57.602Z,6.77
2019-02-12T11:58:23.815Z,6.93
2019-02-12T12:00:51.868Z,5.70
2019-02-12T12:03:18.127Z,4.13
2019-02-12T12:05:44.450Z,5.00
2019-02-12T12:08:10.609Z,5.87
2019-02-12T12:10:36.881Z,6.83
2019-02-12T12:13:03.184Z,4.70
2019-02-12T12:15:29.358Z,7.63
2019-02-12T12:17:55.533Z,7.53
2019-02-12T12:20:21.834Z,8.00
2019-02-12T12:22:47.991Z,6.60
2019-02-12T12:25:14.158Z,4.73
2019-02-12T12:27:40.504Z,12.27
2019-02-12T12:30:09.499Z,8.80
2019-02-12T12:32:36.729Z,4.47
2019-02-12T12:35:04.836Z,7.23
2019-02-12T12:37:30.998Z,4.97
2019-02-12T12:39:57.521Z,6.00
2019-02-12T12:42:23.707Z,8.87
2019-02-12T12:44:49.996Z,9.37
2019-02-12T12:47:16.288Z,9.07
2019-02-12T12:49:42.623Z,5.33
2019-02-12T12:52:08.899Z,6.97
2019-02-12T12:54:35.190Z,5.37
2019-02-12T12:57:02.539Z,7.10
2019-02-12T12:59:28.836Z,10.97
2019-02-12T13:01:55.134Z,11.47
2019-02-12T13:04:21.469Z,9.33
2019-02-12T13:06:47.771Z,15.60
2019-02-12T13:09:13.979Z,8.63
2019-02-12T13:11:42.688Z,6.99
2019-02-12T13:14:08.967Z,13.83
2019-02-12T13:16:35.255Z,5.03
2019-02-12T13:19:01.570Z,8.30
2019-02-12T13:21:27.859Z,9.17
2019-02-12T13:23:54.169Z,5.67
2019-02-12T13:26:20.479Z,6.13
2019-02-12T13:28:46.780Z,10.13
2019-02-12T13:31:13.074Z,11.03
2019-02-12T13:33:39.398Z,7.83
2019-02-12T13:36:05.707Z,9.73
2019-02-12T13:38:31.994Z,16.20
2019-02-12T13:40:58.366Z,7.17
2019-02-12T13:43:24.647Z,9.20
2019-02-12T13:45:50.937Z,7.17
2019-02-12T13:48:17.254Z,5.60
2019-02-12T13:50:43.535Z,7.57
2019-02-12T13:53:09.830Z,9.77
2019-02-12T13:55:36.150Z,5.67
2019-02-12T13:58:02.433Z,5.40
2019-02-12T14:00:28.734Z,12.43
2019-02-12T14:02:55.044Z,8.83
2019-02-12T14:05:22.686Z,6.70
2019-02-12T14:07:49.025Z,5.27
2019-02-12T14:10:15.357Z,4.73
2019-02-12T14:12:41.646Z,11.37
2019-02-12T14:15:11.132Z,9.93
2019-02-12T14:17:37.461Z,12.10
2019-02-12T14:20:07.369Z,8.67
2019-02-12T14:22:33.654Z,9.37
2019-02-12T14:24:59.983Z,7.53
2019-02-12T14:27:26.269Z,5.80
2019-02-12T14:29:52.470Z,5.27
2019-02-12T14:32:18.685Z,5.47
2019-02-12T14:34:45.031Z,4.93
2019-02-12T14:37:11.316Z,6.27
2019-02-12T14:39:37.629Z,10.57
2019-02-12T14:42:03.917Z,11.67
2019-02-12T14:44:30.203Z,8.20
2019-02-12T14:46:56.432Z,6.87
2019-02-12T14:49:22.743Z,10.20
2019-02-12T14:51:49.030Z,4.30
2019-02-12T14:54:15.396Z,35.13
2019-02-12T14:56:41.683Z,11.60
2019-02-12T14:59:13.802Z,10.69
2019-02-12T15:01:40.123Z,16.90
2019-02-12T15:04:06.410Z,15.17
2019-02-12T15:06:32.695Z,7.57
2019-02-12T15:08:59.020Z,6.73
2019-02-12T15:11:25.315Z,9.30
2019-02-12T15:13:51.636Z,7.97
2019-02-12T15:16:17.850Z,14.30
2019-02-12T15:18:44.146Z,7.70
2019-02-12T15:21:10.340Z,8.33
2019-02-12T15:23:36.663Z,7.50
2019-02-12T15:26:02.964Z,9.97
2019-02-12T15:28:29.147Z,16.67
2019-02-12T15:30:55.474Z,22.90
2019-02-12T15:33:21.765Z,14.93
2019-02-12T15:35:48.193Z,14.77
2019-02-12T15:38:14.424Z,12.07
2019-02-12T15:40:41.087Z,8.07
2019-02-12T15:43:07.288Z,8.73
2019-02-12T15:45:33.621Z,12.20
2019-02-12T15:47:59.910Z,10.77
2019-02-12T15:50:26.207Z,14.43
2019-02-12T15:52:52.433Z,26.00
2019-02-12T15:55:18.755Z,21.33
2019-02-12T15:57:45.934Z,14.93
2019-02-12T16:00:16.094Z,7.93
2019-02-12T16:02:43.464Z,16.33
2019-02-12T16:05:12.358Z,7.60
2019-02-12T16:07:38.801Z,9.57
2019-02-12T16:10:11.007Z,6.97
2019-02-12T16:12:37.306Z,16.50
2019-02-12T16:15:09.731Z,15.97
2019-02-12T16:17:37.377Z,11.10
2019-02-12T16:20:06.011Z,12.23
2019-02-12T16:22:32.336Z,7.43
2019-02-12T16:24:58.631Z,11.47
2019-02-12T16:27:25.108Z,9.17
2019-02-12T16:29:51.424Z,9.37
2019-02-12T16:32:17.710Z,10.33
2019-02-12T16:34:43.999Z,11.10
2019-02-12T16:37:10.402Z,9.83
2019-02-12T16:39:36.690Z,15.87
2019-02-12T16:42:02.991Z,10.30
2019-02-12T16:44:29.308Z,8.17
2019-02-12T16:46:55.634Z,6.00
2019-02-12T16:49:21.914Z,8.00
2019-02-12T16:51:48.243Z,6.83
2019-02-12T16:54:14.548Z,9.67
2019-02-12T16:56:40.736Z,5.60
2019-02-12T16:59:07.056Z,6.57
2019-02-12T17:01:33.241Z,15.87
2019-02-12T17:03:59.532Z,5.57
2019-02-12T17:06:25.860Z,10.20
2019-02-12T17:08:52.159Z,7.93
2019-02-12T17:11:18.353Z,13.30
2019-02-12T17:13:44.667Z,6.70
2019-02-12T17:16:10.955Z,13.10
2019-02-12T17:18:37.240Z,14.53
2019-02-12T17:21:03.571Z,8.47
2019-02-12T17:23:29.803Z,6.97
2019-02-12T17:25:56.117Z,10.27
2019-02-12T17:28:22.442Z,9.33
2019-02-12T17:30:48.733Z,6.40
2019-02-12T17:33:15.018Z,13.93
2019-02-12T17:35:41.341Z,16.90
2019-02-12T17:38:08.500Z,9.97
2019-02-12T17:40:34.790Z,9.23
2019-02-12T17:43:01.110Z,11.10
2019-02-12T17:45:27.588Z,9.03
2019-02-12T17:47:53.967Z,10.77
2019-02-12T17:50:20.297Z,8.63
2019-02-12T17:52:46.589Z,7.97
2019-02-12T17:55:12.874Z,8.33
2019-02-12T17:57:39.198Z,10.33
2019-02-12T18:00:16.664Z,10.33
2019-02-12T18:02:42.985Z,8.37
2019-02-12T18:05:09.276Z,8.53
2019-02-12T18:07:35.564Z,6.13
2019-02-12T18:10:01.880Z,7.10
2019-02-12T18:12:28.188Z,8.40
2019-02-12T18:14:54.489Z,8.33
2019-02-12T18:17:20.811Z,7.60
2019-02-12T18:19:47.106Z,11.07
2019-02-12T18:22:13.386Z,11.07
2019-02-12T18:24:39.725Z,7.97
2019-02-12T18:27:06.021Z,5.90
2019-02-12T18:29:32.658Z,8.80
2019-02-12T18:31:58.991Z,6.30
2019-02-12T18:34:25.279Z,7.03
2019-02-12T18:36:51.567Z,8.00
2019-02-12T18:39:18.011Z,4.20
2019-02-12T18:41:44.783Z,6.13
2019-02-12T18:44:11.038Z,7.00
2019-02-12T18:46:37.354Z,7.53
2019-02-12T18:49:03.640Z,8.10
2019-02-12T18:51:29.939Z,8.43
2019-02-12T18:53:56.249Z,8.20
2019-02-12T18:56:22.548Z,7.27
2019-02-12T18:58:48.842Z,8.33
2019-02-12T19:01:15.156Z,7.47
2019-02-12T19:03:41.449Z,7.50
2019-02-12T19:06:07.735Z,17.37
2019-02-12T19:08:34.045Z,12.23
2019-02-12T19:11:00.340Z,12.23
2019-02-12T19:13:26.661Z,14.00
2019-02-12T19:15:53.039Z,8.47
2019-02-12T19:18:21.940Z,9.37
2019-02-12T19:20:48.225Z,11.17
2019-02-12T19:23:14.544Z,10.37
2019-02-12T19:25:40.914Z,5.77
2019-02-12T19:28:07.208Z,6.17
2019-02-12T19:30:33.534Z,5.77
2019-02-12T19:32:59.829Z,5.53
2019-02-12T19:35:26.113Z,24.73
2019-02-12T19:37:52.433Z,6.73
2019-02-12T19:40:18.794Z,5.43
2019-02-12T19:42:45.146Z,5.83
2019-02-12T19:45:14.152Z,12.90
2019-02-12T19:47:40.615Z,4.70
2019-02-12T19:50:08.609Z,6.07
2019-02-12T19:52:34.939Z,6.30
2019-02-12T19:55:01.227Z,8.53
2019-02-12T19:57:27.896Z,12.73
2019-02-12T19:59:54.230Z,8.47
2019-02-12T20:02:20.524Z,9.00
2019-02-12T20:04:46.804Z,8.67
2019-02-12T20:07:13.130Z,8.80
2019-02-12T20:09:39.422Z,6.97
2019-02-12T20:12:05.721Z,9.93
2019-02-12T20:14:32.060Z,9.93
2019-02-12T20:16:58.356Z,10.70
2019-02-12T20:19:24.639Z,10.20
2019-02-12T20:21:50.866Z,9.77
2019-02-12T20:24:17.166Z,6.93
2019-02-12T20:26:43.450Z,11.00
2019-02-12T20:29:09.681Z,11.80
2019-02-12T20:31:35.960Z,22.43
2019-02-12T20:34:02.157Z,17.33
2019-02-12T20:36:28.483Z,13.67
2019-02-12T20:38:54.780Z,9.40
2019-02-12T20:41:21.034Z,24.13
2019-02-12T20:43:47.252Z,15.80
2019-02-12T20:46:13.544Z,10.40
2019-02-12T20:48:39.849Z,9.57
2019-02-12T20:51:06.182Z,12.97
2019-02-12T20:53:32.479Z,11.07
2019-02-12T20:55:58.758Z,13.03
2019-02-12T20:58:25.088Z,9.57
2019-02-12T21:00:51.385Z,7.30
2019-02-12T21:03:17.678Z,13.07
2019-02-12T21:05:43.908Z,9.37
2019-02-12T21:08:10.198Z,19.13
2019-02-12T21:10:36.485Z,10.23
2019-02-12T21:13:02.805Z,15.67
2019-02-12T21:15:29.805Z,17.07
2019-02-12T21:17:55.995Z,24.60
2019-02-12T21:20:22.327Z,14.87
2019-02-12T21:22:48.610Z,10.97
2019-02-12T21:25:14.917Z,7.93
2019-02-12T21:27:41.123Z,10.20
2019-02-12T21:30:16.806Z,7.87
2019-02-12T21:32:43.027Z,11.27
2019-02-12T21:35:11.503Z,9.73
2019-02-12T21:37:37.781Z,10.97
2019-02-12T21:40:19.468Z,14.50
2019-02-12T21:42:46.729Z,10.17
2019-02-12T21:45:12.992Z,10.53
2019-02-12T21:47:39.201Z,12.53
2019-02-12T21:50:09.999Z,7.33
2019-02-12T21:52:36.161Z,14.47
2019-02-12T21:55:04.558Z,12.90
2019-02-12T21:57:32.091Z,14.37
2019-02-12T21:59:58.486Z,11.40
2019-02-12T22:02:24.683Z,12.77
2019-02-12T22:04:50.851Z,9.93
2019-02-12T22:07:17.115Z,10.87
2019-02-12T22:09:43.323Z,13.57
2019-02-12T22:12:09.584Z,10.43
2019-02-12T22:14:35.631Z,9.10
2019-02-12T22:17:02.786Z,9.20
2019-02-12T22:19:28.951Z,9.93
2019-02-12T22:21:55.117Z,12.33
2019-02-12T22:24:21.305Z,9.87
2019-02-12T22:26:47.458Z,12.43
2019-02-12T22:29:13.615Z,9.50
2019-02-12T22:31:39.803Z,8.70
2019-02-12T22:34:06.066Z,8.30
2019-02-12T22:36:32.222Z,10.43
2019-02-12T22:38:58.421Z,9.80
2019-02-12T22:41:24.579Z,9.57
2019-02-12T22:43:50.779Z,9.03
2019-02-12T22:46:16.972Z,11.40
2019-02-12T22:48:43.231Z,9.23
2019-02-12T22:51:09.393Z,12.13
2019-02-12T22:53:35.478Z,10.10
2019-02-12T22:56:01.770Z,10.60
2019-02-12T22:58:27.926Z,9.00
2019-02-12T23:00:57.358Z,10.73
2019-02-12T23:03:24.253Z,8.87
2019-02-12T23:05:50.428Z,8.67
2019-02-12T23:08:16.748Z,9.50
2019-02-12T23:10:42.938Z,10.73
2019-02-12T23:13:09.238Z,8.43
2019-02-12T23:15:35.661Z,7.57
2019-02-12T23:18:01.839Z,7.67
2019-02-12T23:20:28.025Z,11.23
2019-02-12T23:22:54.336Z,9.73
2019-02-12T23:25:20.641Z,7.90
2019-02-12T23:27:46.934Z,10.07
2019-02-12T23:30:13.262Z,10.00
2019-02-12T23:32:39.544Z,8.17
2019-02-12T23:35:05.833Z,6.57
2019-02-12T23:37:32.162Z,7.87
2019-02-12T23:39:58.459Z,8.53
2019-02-12T23:42:24.752Z,9.17
2019-02-12T23:44:51.125Z,10.33
2019-02-12T23:47:17.414Z,7.53
2019-02-12T23:49:43.697Z,7.13
2019-02-12T23:52:10.032Z,7.87
2019-02-12T23:54:36.218Z,7.73
2019-02-12T23:57:02.512Z,6.17
2019-02-12T23:59:28.833Z,6.20
